createdAt,value
2024-01-29T00:00:31.625Z,53.3
2024-01-29T00:01:47.921Z,52.6
2024-01-29T00:03:04.231Z,53.4
2024-01-29T00:04:19.530Z,54.4
2024-01-29T00:05:35.839Z,56
2024-01-29T00:06:52.131Z,59.4
2024-01-29T00:09:24.722Z,58.8
2024-01-29T00:10:41.012Z,58.1
2024-01-29T00:11:57.314Z,56
2024-01-29T00:13:13.597Z,55.7
2024-01-29T00:14:29.905Z,55.1
2024-01-29T00:15:46.198Z,56.7
2024-01-29T00:17:02.497Z,53.3
2024-01-29T00:18:18.796Z,55.2
2024-01-29T00:19:35.076Z,52
2024-01-29T00:20:50.383Z,53.9
2024-01-29T00:22:06.683Z,55.1
2024-01-29T00:23:22.990Z,52
2024-01-29T00:24:39.281Z,52.8
2024-01-29T00:25:55.583Z,52.5
2024-01-29T00:27:11.880Z,54.1
2024-01-29T00:28:28.172Z,52.6
2024-01-29T00:29:44.475Z,55.5
2024-01-29T00:31:00.756Z,52.5
2024-01-29T00:32:17.052Z,51.7
2024-01-29T00:33:33.344Z,51
2024-01-29T00:34:49.646Z,53.1
2024-01-29T00:36:05.944Z,51.5
2024-01-29T00:37:21.252Z,50.5
2024-01-29T00:38:37.552Z,50.4
2024-01-29T00:39:53.842Z,51.4
2024-01-29T00:41:10.139Z,51.4
2024-01-29T00:42:26.442Z,52.8
2024-01-29T00:43:42.730Z,53.3
2024-01-29T00:44:59.023Z,54.9
2024-01-29T00:46:15.313Z,53.8
2024-01-29T00:47:31.615Z,54.6
2024-01-29T00:48:47.913Z,58.3
2024-01-29T00:50:04.194Z,56.7
2024-01-29T00:51:20.493Z,57
2024-01-29T00:52:36.795Z,55.1
2024-01-29T00:53:52.103Z,53.1
2024-01-29T00:55:08.391Z,53.4
2024-01-29T00:56:24.696Z,54.9
2024-01-29T00:57:40.999Z,53.1
2024-01-29T00:58:57.277Z,54.3
2024-01-29T01:00:13.583Z,54.4
2024-01-29T01:01:28.901Z,52.5
2024-01-29T01:02:45.192Z,56.3
2024-01-29T01:04:01.488Z,53
2024-01-29T01:05:17.796Z,56.7
2024-01-29T01:06:34.087Z,52.5
2024-01-29T01:07:50.406Z,53.4
2024-01-29T01:09:06.671Z,50.9
2024-01-29T01:10:22.979Z,55.1
2024-01-29T01:11:39.261Z,53.4
2024-01-29T01:12:55.557Z,52.8
2024-01-29T01:14:11.853Z,53.3
2024-01-29T01:15:28.149Z,53.6
2024-01-29T01:16:44.437Z,54.3
2024-01-29T01:17:59.753Z,55.2
2024-01-29T01:19:16.056Z,53.9
2024-01-29T01:20:32.359Z,58.1
2024-01-29T01:21:48.651Z,53.9
2024-01-29T01:23:04.936Z,54.7
2024-01-29T01:24:21.242Z,55.2
2024-01-29T01:25:37.539Z,53
2024-01-29T01:26:53.822Z,55.2
2024-01-29T01:28:10.112Z,53.8
2024-01-29T01:29:26.414Z,55.5
2024-01-29T01:30:42.710Z,54.7
2024-01-29T01:31:59.001Z,56
2024-01-29T01:33:15.317Z,51.5
2024-01-29T01:34:30.605Z,52.8
2024-01-29T01:35:46.935Z,51.4
2024-01-29T01:37:03.217Z,56.8
2024-01-29T01:38:19.495Z,56.2
2024-01-29T01:39:35.795Z,52.8
2024-01-29T01:40:52.098Z,53.4
2024-01-29T01:42:08.385Z,52.2
2024-01-29T01:43:24.682Z,53
2024-01-29T01:44:40.987Z,53.9
2024-01-29T01:45:57.290Z,52
2024-01-29T01:47:13.578Z,56.7
2024-01-29T01:48:29.883Z,54.6
2024-01-29T01:49:46.155Z,54.1
2024-01-29T01:51:01.473Z,55.5
2024-01-29T01:52:17.764Z,61.7
2024-01-29T01:53:34.068Z,55.1
2024-01-29T01:54:50.357Z,59.1
2024-01-29T01:56:06.665Z,52.3
2024-01-29T01:57:22.956Z,53.3
2024-01-29T01:58:39.250Z,50.7
2024-01-29T01:59:55.535Z,51.2
2024-01-29T02:01:11.824Z,52
2024-01-29T02:02:28.138Z,51.5
2024-01-29T02:03:44.426Z,50.9
2024-01-29T02:05:00.720Z,49.9
2024-01-29T02:06:17.022Z,50.4
2024-01-29T02:07:32.343Z,55.1
2024-01-29T02:08:48.615Z,55.2
2024-01-29T02:10:04.911Z,53.1
2024-01-29T02:11:21.224Z,53.3
2024-01-29T02:12:37.502Z,51
2024-01-29T02:13:53.817Z,51.5
2024-01-29T02:15:10.114Z,52.3
2024-01-29T02:16:26.392Z,52.5
2024-01-29T02:17:42.694Z,53.8
2024-01-29T02:18:58.979Z,52.8
2024-01-29T02:20:15.276Z,53.4
2024-01-29T02:21:31.585Z,52.8
2024-01-29T02:22:47.895Z,53.8
2024-01-29T02:24:03.199Z,53
2024-01-29T02:25:19.483Z,53.8
2024-01-29T02:26:35.767Z,53.3
2024-01-29T02:27:52.059Z,51.4
2024-01-29T02:29:08.356Z,53.9
2024-01-29T02:30:24.684Z,53
2024-01-29T02:31:40.956Z,50.9
2024-01-29T02:32:57.242Z,52.8
2024-01-29T02:34:13.538Z,56.3
2024-01-29T02:35:29.836Z,53.6
2024-01-29T02:36:46.149Z,50.9
2024-01-29T02:38:02.432Z,53.3
2024-01-29T02:39:18.724Z,53.9
2024-01-29T02:40:34.042Z,51.5
2024-01-29T02:41:50.329Z,55.5
2024-01-29T02:43:06.622Z,51
2024-01-29T02:44:22.921Z,53.1
2024-01-29T02:45:39.233Z,56
2024-01-29T02:46:55.512Z,55.9
2024-01-29T02:48:11.807Z,52.5
2024-01-29T02:49:28.126Z,52.2
2024-01-29T02:50:44.399Z,54.1
2024-01-29T02:52:00.690Z,53.4
2024-01-29T02:53:17.022Z,55.9
2024-01-29T02:54:33.296Z,58.8
2024-01-29T02:55:49.584Z,56.2
2024-01-29T02:57:04.888Z,57.2
2024-01-29T02:58:21.190Z,55.7
2024-01-29T02:59:37.497Z,56.7
2024-01-29T03:00:53.798Z,55.5
2024-01-29T03:02:10.091Z,55.1
2024-01-29T03:03:26.379Z,57.8
2024-01-29T03:04:42.676Z,56.5
2024-01-29T03:05:58.966Z,55.1
2024-01-29T03:07:15.262Z,52.6
2024-01-29T03:08:31.583Z,59.7
2024-01-29T03:09:47.847Z,58.6
2024-01-29T03:11:04.149Z,56.2
2024-01-29T03:12:20.435Z,54.7
2024-01-29T03:13:35.749Z,52.5
2024-01-29T03:14:52.064Z,56.7
2024-01-29T03:16:08.369Z,56
2024-01-29T03:17:24.646Z,57.6
2024-01-29T03:18:40.934Z,58.3
2024-01-29T03:19:57.241Z,58
2024-01-29T03:21:13.532Z,54.1
2024-01-29T03:22:29.816Z,56.5
2024-01-29T03:23:46.120Z,56.3
2024-01-29T03:25:02.405Z,56.2
2024-01-29T03:26:18.708Z,58
2024-01-29T03:27:35.014Z,54.4
2024-01-29T03:28:51.292Z,53.6
2024-01-29T03:30:06.602Z,53.8
2024-01-29T03:31:22.897Z,54.3
2024-01-29T03:32:39.211Z,55.9
2024-01-29T03:33:55.489Z,56.3
2024-01-29T03:35:11.799Z,55.2
2024-01-29T03:36:28.084Z,56.5
2024-01-29T03:37:44.375Z,56.7
2024-01-29T03:39:00.671Z,58.1
2024-01-29T03:40:16.966Z,57.6
2024-01-29T03:41:33.273Z,56
2024-01-29T03:42:49.565Z,58
2024-01-29T03:44:05.854Z,57.2
2024-01-29T03:45:22.154Z,56.7
2024-01-29T03:46:37.478Z,54.9
2024-01-29T03:47:53.000Z,56.3
2024-01-29T03:49:10.054Z,56.8
2024-01-29T03:50:26.363Z,56.2
2024-01-29T03:51:42.655Z,56.7
2024-01-29T03:52:58.934Z,58.3
2024-01-29T03:54:15.240Z,56.8
2024-01-29T03:55:31.552Z,56.7
2024-01-29T03:56:47.834Z,57.2
2024-01-29T03:58:04.126Z,56.5
2024-01-29T03:59:20.426Z,60.2
2024-01-29T04:00:36.713Z,57.2
2024-01-29T04:01:53.002Z,56.2
2024-01-29T04:03:08.323Z,57.5
2024-01-29T04:04:24.623Z,57.2
2024-01-29T04:05:40.908Z,62.1
2024-01-29T04:06:57.216Z,57.6
2024-01-29T04:08:13.513Z,56.7
2024-01-29T04:09:29.831Z,57.6
2024-01-29T04:10:46.091Z,57.3
2024-01-29T04:12:02.393Z,58.1
2024-01-29T04:13:18.692Z,55.9
2024-01-29T04:14:34.990Z,54.6
2024-01-29T04:15:51.274Z,58.6
2024-01-29T04:17:07.593Z,56.7
2024-01-29T04:18:23.860Z,57.5
2024-01-29T04:19:39.189Z,57.2
2024-01-29T04:20:55.493Z,57.2
2024-01-29T04:22:11.776Z,57.2
2024-01-29T04:23:28.060Z,57.5
2024-01-29T04:24:44.361Z,57
2024-01-29T04:26:00.651Z,59.6
2024-01-29T04:27:16.947Z,57.5
2024-01-29T04:28:33.255Z,56.7
2024-01-29T04:29:49.551Z,58.8
2024-01-29T04:31:05.831Z,56.2
2024-01-29T04:32:22.143Z,56.7
2024-01-29T04:33:38.429Z,57.6
2024-01-29T04:34:54.721Z,60.2
2024-01-29T04:36:10.041Z,57.6
2024-01-29T04:37:26.341Z,59.2
2024-01-29T04:38:42.632Z,60.4
2024-01-29T04:39:58.918Z,58.4
2024-01-29T04:41:15.218Z,58.6
2024-01-29T04:42:31.506Z,57
2024-01-29T04:43:47.827Z,58.1
2024-01-29T04:45:04.107Z,58
2024-01-29T04:46:20.416Z,60.7
2024-01-29T04:47:36.729Z,57.2
2024-01-29T04:48:53.002Z,59.7
2024-01-29T04:50:09.296Z,58
2024-01-29T04:51:25.574Z,59.7
2024-01-29T04:52:40.892Z,59.1
2024-01-29T04:53:57.184Z,56.7
2024-01-29T04:55:13.497Z,56.5
2024-01-29T04:56:29.809Z,57.6
2024-01-29T04:57:46.078Z,57.3
2024-01-29T04:59:02.398Z,58.4
2024-01-29T05:00:18.667Z,58
2024-01-29T05:01:34.965Z,56.3
2024-01-29T05:02:51.248Z,58.4
2024-01-29T05:04:07.546Z,58
2024-01-29T05:05:23.840Z,60.4
2024-01-29T05:06:40.139Z,57.6
2024-01-29T05:07:56.439Z,62
2024-01-29T05:09:11.743Z,58.3
2024-01-29T05:10:28.067Z,56.8
2024-01-29T05:11:44.334Z,59.2
2024-01-29T05:13:00.640Z,60.4
2024-01-29T05:14:16.927Z,58.9
2024-01-29T05:15:33.231Z,59.9
2024-01-29T05:16:48.553Z,57.3
2024-01-29T05:18:04.854Z,58.4
2024-01-29T05:19:21.131Z,56.8
2024-01-29T05:20:37.439Z,57.3
2024-01-29T05:21:53.716Z,57.2
2024-01-29T05:23:10.013Z,58.1
2024-01-29T05:24:26.328Z,60.7
2024-01-29T05:25:42.636Z,58.1
2024-01-29T05:26:58.908Z,62.6
2024-01-29T05:28:15.202Z,58.3
2024-01-29T05:29:31.489Z,59.1
2024-01-29T05:30:47.000Z,59.6
2024-01-29T05:32:04.088Z,59.2
2024-01-29T05:33:19.422Z,60.7
2024-01-29T05:34:35.718Z,59.9
2024-01-29T05:35:51.995Z,61.7
2024-01-29T05:37:08.301Z,60.2
2024-01-29T05:38:24.587Z,61.7
2024-01-29T05:39:40.871Z,60.4
2024-01-29T05:40:57.171Z,59.7
2024-01-29T05:42:13.463Z,59.7
2024-01-29T05:43:29.786Z,58
2024-01-29T05:44:46.058Z,59.6
2024-01-29T05:46:02.356Z,59.1
2024-01-29T05:47:18.673Z,58.3
2024-01-29T05:48:34.968Z,58
2024-01-29T05:49:50.255Z,58.8
2024-01-29T05:51:06.505Z,60.1
2024-01-29T05:52:22.757Z,58.1
2024-01-29T05:53:38.988Z,60.2
2024-01-29T05:54:55.284Z,59.7
2024-01-29T05:56:11.608Z,58.4
2024-01-29T05:57:27.880Z,59.2
2024-01-29T05:58:44.183Z,59.9
2024-01-29T06:00:00.490Z,61.7
2024-01-29T06:01:16.759Z,59.7
2024-01-29T06:02:33.075Z,58.9
2024-01-29T06:03:49.385Z,60.9
2024-01-29T06:05:05.657Z,58.6
2024-01-29T06:06:20.971Z,59.4
2024-01-29T06:07:37.267Z,58.3
2024-01-29T06:08:53.555Z,59.4
2024-01-29T06:10:09.841Z,58
2024-01-29T06:11:26.161Z,61
2024-01-29T06:12:42.468Z,60.5
2024-01-29T06:13:58.738Z,61
2024-01-29T06:15:15.022Z,60.2
2024-01-29T06:16:31.335Z,64.2
2024-01-29T06:17:47.613Z,60.2
2024-01-29T06:19:03.907Z,61
2024-01-29T06:20:20.217Z,60.7
2024-01-29T06:21:36.499Z,60.2
2024-01-29T06:22:51.814Z,59.7
2024-01-29T06:24:08.062Z,59.6
2024-01-29T06:25:24.386Z,61.2
2024-01-29T06:26:40.662Z,58.1
2024-01-29T06:27:56.954Z,59.7
2024-01-29T06:29:13.252Z,60.7
2024-01-29T06:30:29.549Z,60.7
2024-01-29T06:31:45.802Z,58.8
2024-01-29T06:33:02.048Z,59.9
2024-01-29T06:34:18.303Z,60.1
2024-01-29T06:35:34.537Z,59.6
2024-01-29T06:36:50.782Z,57.2
2024-01-29T06:38:07.001Z,59.4
2024-01-29T06:39:22.277Z,60.1
2024-01-29T06:40:38.527Z,60.7
2024-01-29T06:41:54.743Z,60.2
2024-01-29T06:43:10.993Z,58.8
2024-01-29T06:44:27.235Z,59.1
2024-01-29T06:45:43.469Z,60.2
2024-01-29T06:46:59.707Z,61.5
2024-01-29T06:48:15.958Z,58.4
2024-01-29T06:49:32.207Z,59.1
2024-01-29T06:50:48.469Z,59.9
2024-01-29T06:52:04.674Z,59.6
2024-01-29T06:53:20.959Z,58.8
2024-01-29T06:54:37.173Z,61.5
2024-01-29T06:55:52.414Z,60.2
2024-01-29T06:57:08.660Z,59.2
2024-01-29T06:58:24.898Z,59.9
2024-01-29T06:59:41.141Z,59.4
2024-01-29T07:00:57.396Z,59.7
2024-01-29T07:02:13.633Z,60.2
2024-01-29T07:03:29.870Z,59.4
2024-01-29T07:04:46.136Z,61
2024-01-29T07:06:02.346Z,59.4
2024-01-29T07:07:18.000Z,60.7
2024-01-29T07:08:34.834Z,59.1
2024-01-29T07:09:51.069Z,59.6
2024-01-29T07:11:07.327Z,59.6
2024-01-29T07:12:22.570Z,58.6
2024-01-29T07:13:38.822Z,58.4
2024-01-29T07:14:55.065Z,58.9
2024-01-29T07:16:11.321Z,59.7
2024-01-29T07:17:27.534Z,58.9
2024-01-29T07:18:43.777Z,59.7
2024-01-29T07:20:00.026Z,57.6
2024-01-29T07:21:16.265Z,59.2
2024-01-29T07:22:32.511Z,59.2
2024-01-29T07:23:48.747Z,57.8
2024-01-29T07:25:04.987Z,57.6
2024-01-29T07:26:21.237Z,59.2
2024-01-29T07:27:37.480Z,59.2
2024-01-29T07:28:52.735Z,61
2024-01-29T07:30:08.971Z,60.9
2024-01-29T07:31:25.214Z,59.6
2024-01-29T07:32:41.468Z,59.2
2024-01-29T07:33:57.694Z,58
2024-01-29T07:35:13.939Z,58.3
2024-01-29T07:36:30.184Z,58.3
2024-01-29T07:37:46.426Z,58.8
2024-01-29T07:39:02.661Z,57.8
2024-01-29T07:40:18.915Z,57.3
2024-01-29T07:41:35.157Z,57.6
2024-01-29T07:42:51.398Z,58.4
2024-01-29T07:44:07.640Z,58.1
2024-01-29T07:45:22.882Z,57.8
2024-01-29T07:46:39.137Z,58
2024-01-29T07:47:55.374Z,58.6
2024-01-29T07:49:11.607Z,59.2
2024-01-29T07:50:27.863Z,58.3
2024-01-29T07:51:44.098Z,57.5
2024-01-29T07:53:00.344Z,59.2
2024-01-29T07:54:16.593Z,60.2
2024-01-29T07:55:32.823Z,59.4
2024-01-29T07:56:49.080Z,59.2
2024-01-29T07:58:05.309Z,58.9
2024-01-29T07:59:21.554Z,59.4
2024-01-29T08:00:37.776Z,61.5
2024-01-29T08:01:53.033Z,62.1
2024-01-29T08:03:09.291Z,61
2024-01-29T08:04:25.522Z,59.9
2024-01-29T08:05:41.770Z,60.7
2024-01-29T08:06:58.017Z,59.7
2024-01-29T08:08:14.256Z,60.2
2024-01-29T08:09:30.491Z,60.9
2024-01-29T08:10:46.741Z,58
2024-01-29T08:12:02.966Z,58.8
2024-01-29T08:13:19.210Z,62
2024-01-29T08:14:35.464Z,59.7
2024-01-29T08:15:51.695Z,61.7
2024-01-29T08:17:07.931Z,60.7
2024-01-29T08:18:23.192Z,61.7
2024-01-29T08:19:39.441Z,58.9
2024-01-29T08:20:55.680Z,60.5
2024-01-29T08:22:11.931Z,61.2
2024-01-29T08:23:28.166Z,57.8
2024-01-29T08:24:44.410Z,61
2024-01-29T08:26:00.639Z,59.7
2024-01-29T08:27:16.891Z,58.6
2024-01-29T08:28:33.128Z,61.7
2024-01-29T08:29:49.375Z,58.8
2024-01-29T08:31:05.611Z,60.2
2024-01-29T08:32:21.851Z,62.1
2024-01-29T08:33:38.096Z,60.4
2024-01-29T08:34:53.353Z,60.4
2024-01-29T08:36:09.604Z,61.2
2024-01-29T08:37:25.834Z,60.2
2024-01-29T08:38:42.081Z,58.9
2024-01-29T08:39:58.308Z,61.8
2024-01-29T08:41:14.554Z,60.9
2024-01-29T08:42:30.791Z,61
2024-01-29T08:43:47.036Z,61.2
2024-01-29T08:45:03.294Z,61.5
2024-01-29T08:46:19.526Z,61.3
2024-01-29T08:47:35.774Z,59.7
2024-01-29T08:48:52.012Z,60.2
2024-01-29T08:50:08.258Z,60.4
2024-01-29T08:51:23.517Z,60.5
2024-01-29T08:52:39.751Z,59.7
2024-01-29T08:53:55.996Z,58.4
2024-01-29T08:55:12.235Z,61.8
2024-01-29T08:56:28.472Z,59.7
2024-01-29T08:57:44.715Z,59.4
2024-01-29T08:59:00.950Z,60.7
2024-01-29T09:00:17.196Z,59.7
2024-01-29T09:01:33.437Z,59.9
2024-01-29T09:02:49.677Z,58.3
2024-01-29T09:04:05.915Z,59.7
2024-01-29T09:05:22.155Z,58
2024-01-29T09:06:38.409Z,58.6
2024-01-29T09:07:53.664Z,59.9
2024-01-29T09:09:09.903Z,60.2
2024-01-29T09:10:26.149Z,59.6
2024-01-29T09:11:42.390Z,59.4
2024-01-29T09:12:58.626Z,59.9
2024-01-29T09:14:14.864Z,59.1
2024-01-29T09:15:31.108Z,58.9
2024-01-29T09:16:47.352Z,58.6
2024-01-29T09:18:03.597Z,58.1
2024-01-29T09:19:19.830Z,56.7
2024-01-29T09:20:36.077Z,56.7
2024-01-29T09:21:52.302Z,57
2024-01-29T09:23:08.561Z,56.7
2024-01-29T09:24:23.819Z,57.3
2024-01-29T09:25:40.047Z,60.4
2024-01-29T09:26:56.293Z,59.2
2024-01-29T09:28:12.522Z,58.8
2024-01-29T09:29:28.778Z,57.8
2024-01-29T09:30:45.014Z,57.2
2024-01-29T09:32:00.272Z,58.1
2024-01-29T09:33:16.507Z,56.8
2024-01-29T09:34:32.749Z,56.7
2024-01-29T09:35:48.988Z,58
2024-01-29T09:37:05.242Z,56.2
2024-01-29T09:38:21.483Z,57.6
2024-01-29T09:39:37.713Z,57.2
2024-01-29T09:40:53.971Z,57.2
2024-01-29T09:42:10.198Z,56.7
2024-01-29T09:43:26.447Z,58
2024-01-29T09:44:42.686Z,56.8
2024-01-29T09:45:58.926Z,56.3
2024-01-29T09:47:15.167Z,56.2
2024-01-29T09:48:30.417Z,56.5
2024-01-29T09:49:46.663Z,53.9
2024-01-29T09:51:02.910Z,56
2024-01-29T09:52:19.140Z,57
2024-01-29T09:53:35.382Z,56.2
2024-01-29T09:54:51.630Z,56.2
2024-01-29T09:56:07.871Z,55.4
2024-01-29T09:57:24.110Z,55.1
2024-01-29T09:58:40.357Z,57.2
2024-01-29T09:59:56.597Z,56.7
2024-01-29T10:01:12.841Z,55.1
2024-01-29T10:02:29.082Z,56.7
2024-01-29T10:03:45.320Z,57.8
2024-01-29T10:05:00.563Z,56.3
2024-01-29T10:06:16.808Z,57
2024-01-29T10:07:33.061Z,55.2
2024-01-29T10:08:49.293Z,55.1
2024-01-29T10:10:05.533Z,56.2
2024-01-29T10:11:21.778Z,55.1
2024-01-29T10:12:38.008Z,53.8
2024-01-29T10:13:54.250Z,54.9
2024-01-29T10:15:10.492Z,55.1
2024-01-29T10:16:26.734Z,55.9
2024-01-29T10:17:42.984Z,55.4
2024-01-29T10:18:59.228Z,55.2
2024-01-29T10:20:15.461Z,54.3
2024-01-29T10:21:30.708Z,55.7
2024-01-29T10:22:46.967Z,54.3
2024-01-29T10:24:03.206Z,55.1
2024-01-29T10:25:19.444Z,55.1
2024-01-29T10:26:35.684Z,55.9
2024-01-29T10:27:51.929Z,54.9
2024-01-29T10:29:08.162Z,56.2
2024-01-29T10:30:24.403Z,56.2
2024-01-29T10:31:40.633Z,57
2024-01-29T10:32:56.886Z,56.3
2024-01-29T10:34:13.134Z,56.3
2024-01-29T10:35:29.367Z,56
2024-01-29T10:36:45.595Z,54.3
2024-01-29T10:38:00.864Z,55.2
2024-01-29T10:39:17.095Z,54.9
2024-01-29T10:40:33.339Z,54.6
2024-01-29T10:41:49.575Z,64.4
2024-01-29T10:43:05.831Z,53.3
2024-01-29T10:44:22.064Z,52.3
2024-01-29T10:45:38.303Z,55.4
2024-01-29T10:46:54.535Z,54.6
2024-01-29T10:48:10.781Z,55.2
2024-01-29T10:49:27.038Z,55.2
2024-01-29T10:50:43.269Z,56.7
2024-01-29T10:51:59.517Z,56.2
2024-01-29T10:53:15.742Z,53.4
2024-01-29T10:54:31.009Z,52.8
2024-01-29T10:55:47.248Z,53.6
2024-01-29T10:57:03.486Z,53.3
2024-01-29T10:58:19.730Z,53.9
2024-01-29T10:59:35.965Z,55.1
2024-01-29T11:00:52.204Z,53.1
2024-01-29T11:02:08.455Z,53.9
2024-01-29T11:03:24.689Z,53.6
2024-01-29T11:04:40.928Z,54.3
2024-01-29T11:05:57.171Z,53.6
2024-01-29T11:07:13.406Z,54.6
2024-01-29T11:08:29.643Z,54.7
2024-01-29T11:09:45.889Z,54.3
2024-01-29T11:11:01.156Z,54.7
2024-01-29T11:12:17.385Z,54.6
2024-01-29T11:13:33.637Z,53
2024-01-29T11:14:49.871Z,54.1
2024-01-29T11:16:06.102Z,53.8
2024-01-29T11:17:22.344Z,54.6
2024-01-29T11:18:38.587Z,53.4
2024-01-29T11:19:54.841Z,53.3
2024-01-29T11:21:11.072Z,54.6
2024-01-29T11:22:27.317Z,52.8
2024-01-29T11:23:43.554Z,53.8
2024-01-29T11:24:59.797Z,54.9
2024-01-29T11:26:16.039Z,53.8
2024-01-29T11:27:31.297Z,53
2024-01-29T11:28:47.540Z,54.9
2024-01-29T11:30:03.774Z,55.1
2024-01-29T11:31:20.005Z,53
2024-01-29T11:32:36.248Z,54.4
2024-01-29T11:33:52.499Z,53.8
2024-01-29T11:35:08.728Z,52
2024-01-29T11:36:24.977Z,53.6
2024-01-29T11:37:41.000Z,54.6
2024-01-29T11:38:57.456Z,54.3
2024-01-29T11:40:13.691Z,53.3
2024-01-29T11:41:29.927Z,52
2024-01-29T11:42:46.172Z,53.1
2024-01-29T11:44:01.433Z,51.7
2024-01-29T11:45:17.665Z,51.5
2024-01-29T11:46:33.904Z,52.5
2024-01-29T11:47:50.144Z,52.8
2024-01-29T11:49:06.399Z,51.4
2024-01-29T11:50:22.643Z,51.2
2024-01-29T11:51:38.865Z,52
2024-01-29T11:52:55.114Z,57.2
2024-01-29T11:54:11.357Z,52.2
2024-01-29T11:55:27.603Z,53.1
2024-01-29T11:56:43.832Z,52.5
2024-01-29T11:58:00.080Z,51.8
2024-01-29T11:59:16.306Z,52.8
2024-01-29T12:00:31.567Z,52
2024-01-29T12:01:47.802Z,52
2024-01-29T12:03:04.048Z,51.8
2024-01-29T12:04:20.293Z,54.6
2024-01-29T12:05:36.539Z,52.6
2024-01-29T12:06:52.766Z,53.1
2024-01-29T12:08:09.008Z,51.8
2024-01-29T12:09:25.258Z,52.2
2024-01-29T12:10:41.489Z,52.2
2024-01-29T12:11:57.732Z,51.8
2024-01-29T12:13:13.974Z,53.3
2024-01-29T12:14:30.217Z,50.7
2024-01-29T12:15:46.455Z,54.1
2024-01-29T12:17:01.718Z,55.2
2024-01-29T12:18:17.959Z,53.6
2024-01-29T12:19:34.192Z,52.5
2024-01-29T12:20:50.436Z,54.3
2024-01-29T12:22:06.681Z,52.8
2024-01-29T12:23:22.923Z,50.9
2024-01-29T12:24:39.145Z,53
2024-01-29T12:25:55.391Z,52
2024-01-29T12:27:11.637Z,51.5
2024-01-29T12:28:27.873Z,50.5
2024-01-29T12:29:44.111Z,49.7
2024-01-29T12:31:00.358Z,54.3
2024-01-29T12:32:16.595Z,51.2
2024-01-29T12:33:31.844Z,56.2
2024-01-29T12:34:48.087Z,50.9
2024-01-29T12:36:04.332Z,53.1
2024-01-29T12:37:20.581Z,50.9
2024-01-29T12:38:36.806Z,49.4
2024-01-29T12:39:53.052Z,52.8
2024-01-29T12:41:09.300Z,52.2
2024-01-29T12:42:25.531Z,50.2
2024-01-29T12:43:41.786Z,53
2024-01-29T12:44:58.013Z,50.4
2024-01-29T12:46:14.259Z,53.3
2024-01-29T12:47:30.504Z,53.3
2024-01-29T12:48:46.737Z,50.5
2024-01-29T12:50:01.997Z,52.2
2024-01-29T12:51:18.230Z,50.4
2024-01-29T12:52:34.470Z,50.9
2024-01-29T12:53:50.712Z,51.5
2024-01-29T12:55:06.958Z,50.5
2024-01-29T12:56:23.200Z,49.7
2024-01-29T12:57:39.440Z,53.3
2024-01-29T12:58:55.679Z,50.1
2024-01-29T13:00:11.906Z,52.8
2024-01-29T13:01:28.144Z,49.7
2024-01-29T13:02:44.395Z,52.2
2024-01-29T13:04:00.631Z,49.9
2024-01-29T13:05:16.883Z,52
2024-01-29T13:06:32.134Z,57.3
2024-01-29T13:07:48.363Z,53.8
2024-01-29T13:09:04.615Z,52.5
2024-01-29T13:10:20.849Z,51.2
2024-01-29T13:11:37.086Z,51.2
2024-01-29T13:12:53.325Z,55.5
2024-01-29T13:14:09.569Z,52.8
2024-01-29T13:15:25.804Z,50.2
2024-01-29T13:16:42.047Z,51.7
2024-01-29T13:17:58.294Z,55.1
2024-01-29T13:19:14.525Z,51.7
2024-01-29T13:20:30.775Z,50.7
2024-01-29T13:21:47.014Z,53
2024-01-29T13:23:02.268Z,51.5
2024-01-29T13:24:18.000Z,53.1
2024-01-29T13:25:34.746Z,53.8
2024-01-29T13:26:50.987Z,51.2
2024-01-29T13:28:07.241Z,52
2024-01-29T13:29:23.480Z,53.1
2024-01-29T13:30:39.723Z,53.8
2024-01-29T13:31:55.945Z,52.5
2024-01-29T13:33:12.184Z,52.8
2024-01-29T13:34:28.427Z,52.3
2024-01-29T13:35:44.669Z,50.1
2024-01-29T13:37:00.919Z,52.3
2024-01-29T13:38:17.157Z,52.3
2024-01-29T13:39:32.415Z,54.3
2024-01-29T13:40:48.646Z,52
2024-01-29T13:42:04.884Z,53.9
2024-01-29T13:43:21.135Z,52.5
2024-01-29T13:44:37.375Z,53.4
2024-01-29T13:45:53.606Z,53.1
2024-01-29T13:47:08.882Z,52.5
2024-01-29T13:48:25.110Z,53.8
2024-01-29T13:49:41.352Z,52.8
2024-01-29T13:50:57.606Z,52.5
2024-01-29T13:52:13.827Z,53.3
2024-01-29T13:53:30.075Z,54.1
2024-01-29T13:54:46.327Z,53.8
2024-01-29T13:56:02.552Z,52
2024-01-29T13:57:18.797Z,52.3
2024-01-29T13:58:35.033Z,52.5
2024-01-29T13:59:51.289Z,52.5
2024-01-29T14:01:07.519Z,52.2
2024-01-29T14:02:23.761Z,52.5
2024-01-29T14:03:39.011Z,52
2024-01-29T14:04:55.267Z,54.1
2024-01-29T14:06:11.489Z,52.8
2024-01-29T14:07:27.732Z,54.3
2024-01-29T14:08:43.974Z,52.2
2024-01-29T14:10:00.228Z,53.8
2024-01-29T14:11:16.456Z,53.8
2024-01-29T14:12:32.695Z,54.1
2024-01-29T14:13:48.950Z,53.3
2024-01-29T14:15:05.185Z,53
2024-01-29T14:16:21.427Z,52.6
2024-01-29T14:17:37.669Z,54.4
2024-01-29T14:18:53.908Z,51.8
2024-01-29T14:20:09.160Z,58
2024-01-29T14:21:25.394Z,55.4
2024-01-29T14:22:41.635Z,54.3
2024-01-29T14:23:57.888Z,53.8
2024-01-29T14:25:14.114Z,53.8
2024-01-29T14:26:30.363Z,54.4
2024-01-29T14:27:46.598Z,53.9
2024-01-29T14:29:02.832Z,52
2024-01-29T14:30:19.074Z,53
2024-01-29T14:31:35.316Z,53.1
2024-01-29T14:32:51.567Z,52.5
2024-01-29T14:34:07.795Z,55.5
2024-01-29T14:35:24.045Z,54.3
2024-01-29T14:36:39.302Z,53.8
2024-01-29T14:37:55.534Z,56
2024-01-29T14:39:11.787Z,55.1
2024-01-29T14:40:28.013Z,55.5
2024-01-29T14:41:44.271Z,55.5
2024-01-29T14:43:00.506Z,54.9
2024-01-29T14:44:16.742Z,54.4
2024-01-29T14:45:32.975Z,55.5
2024-01-29T14:46:49.228Z,55.4
2024-01-29T14:48:05.460Z,55.1
2024-01-29T14:49:21.714Z,54.3
2024-01-29T14:50:37.942Z,56.7
2024-01-29T14:51:54.196Z,56.7
2024-01-29T14:53:09.434Z,55.9
2024-01-29T14:54:25.689Z,55.7
2024-01-29T14:55:41.930Z,55.7
2024-01-29T14:56:58.155Z,53.3
2024-01-29T14:58:14.394Z,56.7
2024-01-29T14:59:30.654Z,56
2024-01-29T15:00:46.876Z,54.9
2024-01-29T15:02:03.129Z,56.2
2024-01-29T15:03:19.362Z,55.1
2024-01-29T15:04:35.596Z,55.9
2024-01-29T15:05:51.850Z,55.4
2024-01-29T15:07:08.093Z,55.1
2024-01-29T15:08:24.329Z,54.6
2024-01-29T15:09:39.578Z,55.5
2024-01-29T15:10:55.814Z,54.4
2024-01-29T15:12:12.068Z,55.5
2024-01-29T15:13:28.302Z,56.2
2024-01-29T15:14:44.539Z,56.2
2024-01-29T15:16:00.779Z,55.9
2024-01-29T15:17:17.023Z,55.7
2024-01-29T15:18:33.266Z,57.6
2024-01-29T15:19:49.501Z,56
2024-01-29T15:21:05.741Z,56.7
2024-01-29T15:22:21.983Z,55.1
2024-01-29T15:23:38.222Z,53.8
2024-01-29T15:24:54.461Z,55.9
2024-01-29T15:26:09.722Z,56.5
2024-01-29T15:27:25.975Z,56.3
2024-01-29T15:28:42.197Z,57.2
2024-01-29T15:29:58.446Z,56.8
2024-01-29T15:31:14.692Z,58.1
2024-01-29T15:32:30.936Z,55.5
2024-01-29T15:33:47.159Z,56.7
2024-01-29T15:35:03.414Z,56
2024-01-29T15:36:19.650Z,54.3
2024-01-29T15:37:35.884Z,57.2
2024-01-29T15:38:52.128Z,55.1
2024-01-29T15:40:08.364Z,56.7
2024-01-29T15:41:24.606Z,54.6
2024-01-29T15:42:39.876Z,58
2024-01-29T15:43:56.110Z,55.1
2024-01-29T15:45:12.353Z,57.3
2024-01-29T15:46:28.598Z,58
2024-01-29T15:47:44.830Z,56.7
2024-01-29T15:49:01.080Z,58
2024-01-29T15:50:17.311Z,57.3
2024-01-29T15:51:33.561Z,54.9
2024-01-29T15:52:49.783Z,57.6
2024-01-29T15:54:06.028Z,54.9
2024-01-29T15:55:22.274Z,56.3
2024-01-29T15:56:38.527Z,56.8
2024-01-29T15:57:54.746Z,55.9
2024-01-29T15:59:10.006Z,54.1
2024-01-29T16:00:26.245Z,56.5
2024-01-29T16:01:42.482Z,58
2024-01-29T16:02:58.724Z,57.2
2024-01-29T16:04:14.980Z,58.1
2024-01-29T16:05:31.209Z,58.1
2024-01-29T16:06:47.445Z,56.5
2024-01-29T16:08:03.687Z,56.5
2024-01-29T16:09:19.943Z,57.8
2024-01-29T16:10:36.168Z,57
2024-01-29T16:11:52.412Z,56.3
2024-01-29T16:13:08.655Z,56.5
2024-01-29T16:14:24.900Z,56.3
2024-01-29T16:15:40.148Z,56
2024-01-29T16:16:56.388Z,57
2024-01-29T16:18:12.686Z,56.5
2024-01-29T16:19:28.984Z,56.2
2024-01-29T16:20:45.271Z,56.8
2024-01-29T16:22:01.564Z,56.3
2024-01-29T16:23:17.867Z,56.5
2024-01-29T16:24:34.163Z,55.5
2024-01-29T16:25:50.459Z,56.2
2024-01-29T16:27:06.753Z,56.7
2024-01-29T16:29:39.348Z,56
2024-01-29T16:30:55.645Z,56.7
2024-01-29T16:32:10.955Z,58.1
2024-01-29T16:33:27.251Z,56.3
2024-01-29T16:34:43.530Z,56
2024-01-29T16:35:59.844Z,56.5
2024-01-29T16:37:16.136Z,57
2024-01-29T16:38:32.429Z,54.4
2024-01-29T16:39:48.715Z,55.9
2024-01-29T16:41:05.006Z,53.6
2024-01-29T16:42:21.312Z,53.4
2024-01-29T16:43:37.596Z,54.7
2024-01-29T16:44:53.896Z,57.6
2024-01-29T16:46:10.180Z,56.5
2024-01-29T16:47:26.490Z,55.2
2024-01-29T16:48:41.793Z,54.7
2024-01-29T16:49:58.089Z,57.2
2024-01-29T16:51:14.375Z,55.5
2024-01-29T16:52:30.686Z,56.7
2024-01-29T16:53:46.976Z,56.2
2024-01-29T16:55:03.275Z,58.1
2024-01-29T16:56:19.564Z,55.5
2024-01-29T16:57:35.863Z,55.5
2024-01-29T16:58:52.143Z,56.2
2024-01-29T17:00:08.454Z,57
2024-01-29T17:01:24.737Z,55.2
2024-01-29T17:02:41.031Z,54.9
2024-01-29T17:03:57.329Z,56.2